sensor_id;sensor_type;location;lat;lon;timestamp;pressure;altitude;pressure_sealevel;temperature;humidity
41222;BME280;26952;42.884;23.918;2023-02-23T00:00:28;95697.44;;;5.48;100.00
41222;BME280;26952;42.884;23.918;2023-02-23T00:02:57;95703.06;;;5.53;100.00
41222;BME280;26952;42.884;23.918;2023-02-23T00:05:26;95678.25;;;5.47;100.00
41222;BME280;26952;42.884;23.918;2023-02-23T00:07:52;95686.66;;;5.51;100.00
41222;BME280;26952;42.884;23.918;2023-02-23T00:10:18;95697.97;;;5.51;100.00
41222;BME280;26952;42.884;23.918;2023-02-23T00:12:46;95691.91;;;5.51;100.00
41222;BME280;26952;42.884;23.918;2023-02-23T00:15:11;95697.03;;;5.52;100.00
41222;BME280;26952;42.884;23.918;2023-02-23T00:17:37;95650.16;;;5.30;100.00
41222;BME280;26952;42.884;23.918;2023-02-23T00:20:08;95691.56;;;5.63;100.00
41222;BME280;26952;42.884;23.918;2023-02-23T00:22:37;95683.59;;;5.83;100.00
41222;BME280;26952;42.884;23.918;2023-02-23T00:25:03;95700.28;;;5.91;100.00
41222;BME280;26952;42.884;23.918;2023-02-23T00:27:33;95693.50;;;5.89;100.00
41222;BME280;26952;42.884;23.918;2023-02-23T00:29:58;95679.50;;;5.71;100.00
41222;BME280;26952;42.884;23.918;2023-02-23T00:32:23;95689.88;;;5.62;100.00
41222;BME280;26952;42.884;23.918;2023-02-23T00:34:49;95689.84;;;5.45;100.00
41222;BME280;26952;42.884;23.918;2023-02-23T00:37:16;95690.81;;;5.17;100.00
41222;BME280;26952;42.884;23.918;2023-02-23T00:39:42;95694.72;;;5.03;100.00
41222;BME280;26952;42.884;23.918;2023-02-23T00:42:07;95694.19;;;4.90;100.00
41222;BME280;26952;42.884;23.918;2023-02-23T00:44:33;95680.69;;;4.85;100.00
41222;BME280;26952;42.884;23.918;2023-02-23T00:47:01;95687.88;;;4.93;100.00
41222;BME280;26952;42.884;23.918;2023-02-23T00:49:27;95669.63;;;4.91;100.00
41222;BME280;26952;42.884;23.918;2023-02-23T00:51:52;95680.09;;;5.01;100.00
41222;BME280;26952;42.884;23.918;2023-02-23T00:54:20;95648.78;;;4.90;100.00
41222;BME280;26952;42.884;23.918;2023-02-23T00:56:46;95681.97;;;5.18;100.00
41222;BME280;26952;42.884;23.918;2023-02-23T00:59:12;95644.50;;;4.98;100.00
41222;BME280;26952;42.884;23.918;2023-02-23T01:01:38;95674.50;;;5.23;100.00
41222;BME280;26952;42.884;23.918;2023-02-23T01:04:06;95672.34;;;5.09;100.00
41222;BME280;26952;42.884;23.918;2023-02-23T01:06:33;95674.88;;;5.01;100.00
41222;BME280;26952;42.884;23.918;2023-02-23T01:09:06;95682.63;;;4.83;100.00
41222;BME280;26952;42.884;23.918;2023-02-23T01:11:33;95679.63;;;4.69;100.00
41222;BME280;26952;42.884;23.918;2023-02-23T01:13:59;95646.56;;;4.49;100.00
41222;BME280;26952;42.884;23.918;2023-02-23T01:16:30;95690.38;;;4.66;100.00
41222;BME280;26952;42.884;23.918;2023-02-23T01:18:58;95676.59;;;4.64;100.00
41222;BME280;26952;42.884;23.918;2023-02-23T01:21:30;95688.75;;;4.65;100.00
41222;BME280;26952;42.884;23.918;2023-02-23T01:23:56;95668.47;;;4.48;100.00
41222;BME280;26952;42.884;23.918;2023-02-23T01:26:28;95679.66;;;4.40;100.00
41222;BME280;26952;42.884;23.918;2023-02-23T01:28:57;95679.69;;;4.31;100.00
41222;BME280;26952;42.884;23.918;2023-02-23T01:31:23;95671.13;;;4.38;100.00
41222;BME280;26952;42.884;23.918;2023-02-23T01:33:57;95673.31;;;4.33;100.00
41222;BME280;26952;42.884;23.918;2023-02-23T01:36:22;95667.81;;;4.26;100.00
41222;BME280;26952;42.884;23.918;2023-02-23T01:38:50;95667.16;;;4.24;100.00
41222;BME280;26952;42.884;23.918;2023-02-23T01:41:19;95645.78;;;4.19;100.00
41222;BME280;26952;42.884;23.918;2023-02-23T01:46:25;95675.81;;;4.44;100.00
41222;BME280;26952;42.884;23.918;2023-02-23T01:48:51;95628.38;;;4.28;100.00
41222;BME280;26952;42.884;23.918;2023-02-23T01:51:23;95643.81;;;4.41;100.00
41222;BME280;26952;42.884;23.918;2023-02-23T01:57:02;95667.78;;;4.55;100.00
41222;BME280;26952;42.884;23.918;2023-02-23T01:59:31;95668.88;;;4.53;100.00
41222;BME280;26952;42.884;23.918;2023-02-23T02:01:58;95653.72;;;4.47;100.00
41222;BME280;26952;42.884;23.918;2023-02-23T02:04:24;95676.78;;;4.34;100.00
41222;BME280;26952;42.884;23.918;2023-02-23T02:06:51;95673.34;;;4.23;100.00
41222;BME280;26952;42.884;23.918;2023-02-23T02:09:21;95672.53;;;4.33;100.00
41222;BME280;26952;42.884;23.918;2023-02-23T02:11:50;95664.78;;;4.21;100.00
41222;BME280;26952;42.884;23.918;2023-02-23T02:14:25;95664.66;;;4.13;100.00
41222;BME280;26952;42.884;23.918;2023-02-23T02:17:06;95660.78;;;4.17;100.00
41222;BME280;26952;42.884;23.918;2023-02-23T02:25:52;95669.78;;;4.24;100.00
41222;BME280;26952;42.884;23.918;2023-02-23T02:39:40;95665.91;;;4.19;100.00
41222;BME280;26952;42.884;23.918;2023-02-23T02:42:31;95667.00;;;4.16;100.00
41222;BME280;26952;42.884;23.918;2023-02-23T02:45:10;95675.13;;;4.13;100.00
41222;BME280;26952;42.884;23.918;2023-02-23T02:48:22;95679.13;;;4.08;100.00
41222;BME280;26952;42.884;23.918;2023-02-23T02:51:06;95679.41;;;3.95;100.00
41222;BME280;26952;42.884;23.918;2023-02-23T02:56:13;95654.81;;;3.49;100.00
41222;BME280;26952;42.884;23.918;2023-02-23T02:58:44;95674.38;;;3.54;100.00
41222;BME280;26952;42.884;23.918;2023-02-23T03:01:15;95677.97;;;3.63;100.00
41222;BME280;26952;42.884;23.918;2023-02-23T03:04:20;95678.50;;;3.57;100.00
41222;BME280;26952;42.884;23.918;2023-02-23T03:07:15;95671.19;;;3.51;100.00
41222;BME280;26952;42.884;23.918;2023-02-23T03:10:59;95671.34;;;3.49;100.00
41222;BME280;26952;42.884;23.918;2023-02-23T03:17:04;95674.66;;;3.51;100.00
41222;BME280;26952;42.884;23.918;2023-02-23T03:22:59;95689.66;;;3.49;100.00
41222;BME280;26952;42.884;23.918;2023-02-23T03:26:12;95692.31;;;3.68;100.00
41222;BME280;26952;42.884;23.918;2023-02-23T03:29:09;95682.53;;;3.61;100.00
41222;BME280;26952;42.884;23.918;2023-02-23T03:35:24;95676.41;;;3.41;100.00
41222;BME280;26952;42.884;23.918;2023-02-23T03:38:18;95688.97;;;3.57;100.00
41222;BME280;26952;42.884;23.918;2023-02-23T03:41:06;95689.81;;;3.57;100.00
41222;BME280;26952;42.884;23.918;2023-02-23T03:43:54;95691.19;;;3.61;100.00
41222;BME280;26952;42.884;23.918;2023-02-23T03:46:41;95696.03;;;3.66;100.00
41222;BME280;26952;42.884;23.918;2023-02-23T03:49:29;95694.19;;;3.57;100.00
41222;BME280;26952;42.884;23.918;2023-02-23T03:52:19;95696.16;;;3.64;100.00
41222;BME280;26952;42.884;23.918;2023-02-23T03:55:10;95692.03;;;3.71;100.00
41222;BME280;26952;42.884;23.918;2023-02-23T03:57:58;95704.03;;;3.83;100.00
41222;BME280;26952;42.884;23.918;2023-02-23T04:00:46;95684.59;;;3.67;100.00
41222;BME280;26952;42.884;23.918;2023-02-23T04:03:34;95696.34;;;3.82;100.00
41222;BME280;26952;42.884;23.918;2023-02-23T04:06:23;95712.47;;;3.96;100.00
41222;BME280;26952;42.884;23.918;2023-02-23T04:09:09;95714.25;;;3.86;100.00
41222;BME280;26952;42.884;23.918;2023-02-23T04:17:37;95716.25;;;3.54;100.00
41222;BME280;26952;42.884;23.918;2023-02-23T04:20:03;95724.34;;;3.51;100.00
41222;BME280;26952;42.884;23.918;2023-02-23T04:22:31;95714.38;;;3.36;100.00
41222;BME280;26952;42.884;23.918;2023-02-23T04:24:57;95721.38;;;3.26;100.00
41222;BME280;26952;42.884;23.918;2023-02-23T04:27:22;95722.16;;;3.17;100.00
41222;BME280;26952;42.884;23.918;2023-02-23T04:29:48;95723.25;;;3.14;100.00
41222;BME280;26952;42.884;23.918;2023-02-23T04:32:16;95713.59;;;3.15;100.00
41222;BME280;26952;42.884;23.918;2023-02-23T04:34:42;95722.28;;;3.15;100.00
41222;BME280;26952;42.884;23.918;2023-02-23T04:37:09;95714.97;;;3.09;100.00
41222;BME280;26952;42.884;23.918;2023-02-23T04:39:34;95724.47;;;3.10;100.00
41222;BME280;26952;42.884;23.918;2023-02-23T04:41:59;95731.53;;;3.19;100.00
41222;BME280;26952;42.884;23.918;2023-02-23T04:44:25;95735.09;;;3.18;100.00
41222;BME280;26952;42.884;23.918;2023-02-23T04:46:51;95718.53;;;3.08;100.00
41222;BME280;26952;42.884;23.918;2023-02-23T04:49:16;95734.47;;;3.05;100.00
41222;BME280;26952;42.884;23.918;2023-02-23T04:51:41;95749.41;;;3.14;100.00
41222;BME280;26952;42.884;23.918;2023-02-23T04:54:07;95740.00;;;3.12;100.00
41222;BME280;26952;42.884;23.918;2023-02-23T04:56:32;95737.25;;;3.13;100.00
41222;BME280;26952;42.884;23.918;2023-02-23T04:58:57;95728.09;;;3.19;100.00
41222;BME280;26952;42.884;23.918;2023-02-23T05:01:24;95733.75;;;3.24;100.00
41222;BME280;26952;42.884;23.918;2023-02-23T05:03:51;95724.81;;;3.26;100.00
41222;BME280;26952;42.884;23.918;2023-02-23T05:06:17;95741.19;;;3.28;100.00
41222;BME280;26952;42.884;23.918;2023-02-23T05:08:43;95727.41;;;3.26;100.00
41222;BME280;26952;42.884;23.918;2023-02-23T05:11:10;95709.75;;;3.09;100.00
41222;BME280;26952;42.884;23.918;2023-02-23T05:13:36;95733.03;;;3.22;100.00
41222;BME280;26952;42.884;23.918;2023-02-23T05:16:01;95748.06;;;3.29;100.00
41222;BME280;26952;42.884;23.918;2023-02-23T05:18:27;95753.84;;;3.23;100.00
41222;BME280;26952;42.884;23.918;2023-02-23T05:20:53;95754.75;;;3.43;100.00
41222;BME280;26952;42.884;23.918;2023-02-23T05:23:19;95749.78;;;3.40;100.00
41222;BME280;26952;42.884;23.918;2023-02-23T05:25:46;95760.84;;;3.53;100.00
41222;BME280;26952;42.884;23.918;2023-02-23T05:28:11;95762.75;;;3.51;100.00
41222;BME280;26952;42.884;23.918;2023-02-23T05:30:36;95765.50;;;3.49;100.00
41222;BME280;26952;42.884;23.918;2023-02-23T05:33:02;95756.78;;;3.39;100.00
41222;BME280;26952;42.884;23.918;2023-02-23T05:35:28;95775.97;;;3.49;100.00
41222;BME280;26952;42.884;23.918;2023-02-23T05:37:53;95768.97;;;3.50;100.00
41222;BME280;26952;42.884;23.918;2023-02-23T05:40:19;95790.06;;;3.58;100.00
41222;BME280;26952;42.884;23.918;2023-02-23T05:42:44;95779.56;;;3.48;100.00
41222;BME280;26952;42.884;23.918;2023-02-23T05:45:10;95784.97;;;3.56;100.00
41222;BME280;26952;42.884;23.918;2023-02-23T05:47:36;95795.34;;;3.67;100.00
41222;BME280;26952;42.884;23.918;2023-02-23T05:50:08;95798.13;;;3.75;100.00
41222;BME280;26952;42.884;23.918;2023-02-23T05:52:39;95804.69;;;3.70;100.00
41222;BME280;26952;42.884;23.918;2023-02-23T05:55:06;95803.47;;;3.44;100.00
41222;BME280;26952;42.884;23.918;2023-02-23T05:57:31;95817.75;;;3.60;100.00
41222;BME280;26952;42.884;23.918;2023-02-23T05:59:57;95819.31;;;3.72;100.00
41222;BME280;26952;42.884;23.918;2023-02-23T06:02:22;95825.16;;;3.85;100.00
41222;BME280;26952;42.884;23.918;2023-02-23T06:04:48;95814.41;;;3.58;100.00
41222;BME280;26952;42.884;23.918;2023-02-23T06:07:13;95801.88;;;3.52;100.00
41222;BME280;26952;42.884;23.918;2023-02-23T06:09:39;95818.06;;;3.67;100.00
41222;BME280;26952;42.884;23.918;2023-02-23T06:12:05;95815.47;;;3.76;100.00
41222;BME280;26952;42.884;23.918;2023-02-23T06:14:30;95822.13;;;3.90;100.00
41222;BME280;26952;42.884;23.918;2023-02-23T06:16:57;95816.78;;;3.91;100.00
41222;BME280;26952;42.884;23.918;2023-02-23T06:19:24;95828.00;;;4.12;100.00
41222;BME280;26952;42.884;23.918;2023-02-23T06:21:49;95836.56;;;4.24;100.00
41222;BME280;26952;42.884;23.918;2023-02-23T06:24:14;95825.41;;;4.32;100.00
41222;BME280;26952;42.884;23.918;2023-02-23T06:26:40;95815.63;;;4.43;100.00
41222;BME280;26952;42.884;23.918;2023-02-23T06:29:05;95828.38;;;4.67;100.00
41222;BME280;26952;42.884;23.918;2023-02-23T06:31:31;95848.34;;;4.87;100.00
41222;BME280;26952;42.884;23.918;2023-02-23T06:33:56;95830.84;;;4.97;100.00
41222;BME280;26952;42.884;23.918;2023-02-23T06:36:21;95847.81;;;5.12;100.00
41222;BME280;26952;42.884;23.918;2023-02-23T06:38:47;95830.81;;;5.06;100.00
41222;BME280;26952;42.884;23.918;2023-02-23T06:41:12;95833.56;;;5.24;100.00
41222;BME280;26952;42.884;23.918;2023-02-23T06:43:37;95831.31;;;5.38;100.00
41222;BME280;26952;42.884;23.918;2023-02-23T06:46:03;95834.03;;;5.56;100.00
41222;BME280;26952;42.884;23.918;2023-02-23T06:48:29;95839.69;;;5.71;100.00
41222;BME280;26952;42.884;23.918;2023-02-23T06:50:57;95845.16;;;5.77;100.00
41222;BME280;26952;42.884;23.918;2023-02-23T06:53:23;95755.25;;;5.29;100.00
41222;BME280;26952;42.884;23.918;2023-02-23T06:55:49;95828.69;;;5.94;100.00
41222;BME280;26952;42.884;23.918;2023-02-23T06:58:14;95835.19;;;6.44;100.00
41222;BME280;26952;42.884;23.918;2023-02-23T07:00:39;95835.91;;;6.99;100.00
41222;BME280;26952;42.884;23.918;2023-02-23T07:03:09;95825.66;;;7.57;100.00
41222;BME280;26952;42.884;23.918;2023-02-23T07:05:35;95797.59;;;7.99;100.00
41222;BME280;26952;42.884;23.918;2023-02-23T07:08:01;95829.00;;;8.76;100.00
41222;BME280;26952;42.884;23.918;2023-02-23T07:10:26;95828.91;;;9.09;100.00
41222;BME280;26952;42.884;23.918;2023-02-23T07:12:52;95821.31;;;9.38;97.76
41222;BME280;26952;42.884;23.918;2023-02-23T07:15:18;95821.75;;;9.74;94.11
41222;BME280;26952;42.884;23.918;2023-02-23T07:17:45;95831.44;;;10.14;91.48
41222;BME280;26952;42.884;23.918;2023-02-23T07:20:14;95825.38;;;10.44;88.48
41222;BME280;26952;42.884;23.918;2023-02-23T07:22:40;95819.75;;;10.77;87.85
41222;BME280;26952;42.884;23.918;2023-02-23T07:25:06;95823.34;;;11.07;83.51
41222;BME280;26952;42.884;23.918;2023-02-23T07:27:32;95837.72;;;11.35;81.59
41222;BME280;26952;42.884;23.918;2023-02-23T07:29:58;95829.53;;;11.59;81.31
41222;BME280;26952;42.884;23.918;2023-02-23T07:32:24;95825.53;;;11.86;80.20
41222;BME280;26952;42.884;23.918;2023-02-23T07:34:49;95821.25;;;12.14;77.66
41222;BME280;26952;42.884;23.918;2023-02-23T07:37:14;95825.72;;;12.42;75.33
41222;BME280;26952;42.884;23.918;2023-02-23T07:39:41;95821.06;;;12.44;74.88
41222;BME280;26952;42.884;23.918;2023-02-23T07:42:06;95807.13;;;12.57;74.67
41222;BME280;26952;42.884;23.918;2023-02-23T07:44:31;95818.53;;;12.87;73.59
41222;BME280;26952;42.884;23.918;2023-02-23T07:46:57;95820.69;;;12.98;72.23
41222;BME280;26952;42.884;23.918;2023-02-23T07:49:22;95817.13;;;12.91;64.81
41222;BME280;26952;42.884;23.918;2023-02-23T07:51:47;95819.66;;;12.99;70.31
41222;BME280;26952;42.884;23.918;2023-02-23T07:54:13;95818.59;;;13.29;66.37
41222;BME280;26952;42.884;23.918;2023-02-23T07:56:39;95813.22;;;13.43;65.99
41222;BME280;26952;42.884;23.918;2023-02-23T07:59:05;95822.75;;;13.59;63.31
41222;BME280;26952;42.884;23.918;2023-02-23T08:01:30;95809.44;;;13.59;61.71
41222;BME280;26952;42.884;23.918;2023-02-23T08:03:55;95812.31;;;13.36;62.31
41222;BME280;26952;42.884;23.918;2023-02-23T08:06:21;95815.09;;;13.49;60.68
41222;BME280;26952;42.884;23.918;2023-02-23T08:08:46;95818.78;;;13.48;61.25
41222;BME280;26952;42.884;23.918;2023-02-23T08:11:12;95816.19;;;13.55;60.73
41222;BME280;26952;42.884;23.918;2023-02-23T08:13:37;95812.88;;;13.53;61.62
41222;BME280;26952;42.884;23.918;2023-02-23T08:16:03;95823.38;;;13.61;61.65
41222;BME280;26952;42.884;23.918;2023-02-23T08:18:28;95826.16;;;13.74;60.15
41222;BME280;26952;42.884;23.918;2023-02-23T08:21:00;95790.16;;;13.78;58.07
41222;BME280;26952;42.884;23.918;2023-02-23T08:23:29;95828.97;;;13.93;58.88
41222;BME280;26952;42.884;23.918;2023-02-23T08:25:54;95823.09;;;13.77;59.57
41222;BME280;26952;42.884;23.918;2023-02-23T08:28:20;95808.94;;;13.28;58.49
41222;BME280;26952;42.884;23.918;2023-02-23T08:30:46;95829.78;;;13.66;61.05
41222;BME280;26952;42.884;23.918;2023-02-23T08:33:11;95828.50;;;13.62;60.14
41222;BME280;26952;42.884;23.918;2023-02-23T08:35:37;95807.69;;;13.24;61.68
41222;BME280;26952;42.884;23.918;2023-02-23T08:38:02;95836.81;;;13.32;60.16
41222;BME280;26952;42.884;23.918;2023-02-23T08:40:27;95824.88;;;13.07;60.17
41222;BME280;26952;42.884;23.918;2023-02-23T08:42:53;95790.44;;;12.63;60.58
41222;BME280;26952;42.884;23.918;2023-02-23T08:45:19;95832.75;;;12.65;62.67
41222;BME280;26952;42.884;23.918;2023-02-23T08:47:45;95834.13;;;13.11;60.73
41222;BME280;26952;42.884;23.918;2023-02-23T08:50:11;95827.06;;;13.39;59.25
41222;BME280;26952;42.884;23.918;2023-02-23T08:52:38;95816.50;;;13.45;58.98
41222;BME280;26952;42.884;23.918;2023-02-23T08:55:04;95824.53;;;13.31;57.44
41222;BME280;26952;42.884;23.918;2023-02-23T08:57:32;95834.91;;;13.05;59.06
41222;BME280;26952;42.884;23.918;2023-02-23T08:59:57;95817.38;;;13.31;61.00
41222;BME280;26952;42.884;23.918;2023-02-23T09:02:23;95822.75;;;13.59;58.09
41222;BME280;26952;42.884;23.918;2023-02-23T09:04:48;95832.34;;;13.81;56.74
41222;BME280;26952;42.884;23.918;2023-02-23T09:07:16;95825.88;;;13.90;56.88
41222;BME280;26952;42.884;23.918;2023-02-23T09:09:41;95815.47;;;13.95;56.21
41222;BME280;26952;42.884;23.918;2023-02-23T09:12:07;95825.56;;;14.06;56.30
41222;BME280;26952;42.884;23.918;2023-02-23T09:14:32;95831.81;;;14.20;55.63
41222;BME280;26952;42.884;23.918;2023-02-23T09:16:58;95823.22;;;14.24;55.34
41222;BME280;26952;42.884;23.918;2023-02-23T09:19:24;95828.88;;;13.59;56.42
41222;BME280;26952;42.884;23.918;2023-02-23T09:21:50;95821.34;;;13.63;57.86
41222;BME280;26952;42.884;23.918;2023-02-23T09:24:15;95825.66;;;13.43;57.13
41222;BME280;26952;42.884;23.918;2023-02-23T09:26:42;95824.22;;;13.89;56.91
41222;BME280;26952;42.884;23.918;2023-02-23T09:29:08;95819.84;;;14.09;55.89
41222;BME280;26952;42.884;23.918;2023-02-23T09:31:33;95817.00;;;14.11;54.84
41222;BME280;26952;42.884;23.918;2023-02-23T09:33:59;95825.47;;;14.55;54.18
41222;BME280;26952;42.884;23.918;2023-02-23T09:36:26;95824.28;;;14.57;53.64
41222;BME280;26952;42.884;23.918;2023-02-23T09:38:54;95833.78;;;14.79;52.98
41222;BME280;26952;42.884;23.918;2023-02-23T09:47:02;95827.53;;;14.59;52.85
41222;BME280;26952;42.884;23.918;2023-02-23T09:49:32;95813.06;;;14.68;52.84
41222;BME280;26952;42.884;23.918;2023-02-23T09:51:59;95818.25;;;13.59;56.30
41222;BME280;26952;42.884;23.918;2023-02-23T09:54:29;95828.06;;;13.59;57.13
41222;BME280;26952;42.884;23.918;2023-02-23T09:57:00;95820.16;;;13.93;55.89
41222;BME280;26952;42.884;23.918;2023-02-23T09:59:27;95826.16;;;14.63;54.38
41222;BME280;26952;42.884;23.918;2023-02-23T10:02:04;95833.13;;;14.30;54.34
41222;BME280;26952;42.884;23.918;2023-02-23T10:04:38;95828.63;;;14.31;54.42
41222;BME280;26952;42.884;23.918;2023-02-23T10:20:29;95817.53;;;16.39;50.83
41222;BME280;26952;42.884;23.918;2023-02-23T10:23:03;95798.16;;;16.76;49.42
41222;BME280;26952;42.884;23.918;2023-02-23T10:25:34;95798.69;;;16.91;46.89
41222;BME280;26952;42.884;23.918;2023-02-23T10:28:02;95782.94;;;16.70;47.17
41222;BME280;26952;42.884;23.918;2023-02-23T10:30:30;95800.72;;;16.32;47.25
41222;BME280;26952;42.884;23.918;2023-02-23T10:33:19;95800.56;;;16.14;48.51
41222;BME280;26952;42.884;23.918;2023-02-23T10:35:46;95799.31;;;16.16;48.25
41222;BME280;26952;42.884;23.918;2023-02-23T10:38:16;95783.50;;;15.30;49.40
41222;BME280;26952;42.884;23.918;2023-02-23T10:40:44;95767.28;;;15.18;52.19
41222;BME280;26952;42.884;23.918;2023-02-23T10:43:12;95780.06;;;15.69;50.61
41222;BME280;26952;42.884;23.918;2023-02-23T10:45:49;95785.47;;;14.95;50.76
41222;BME280;26952;42.884;23.918;2023-02-23T10:48:18;95780.34;;;14.94;52.60
41222;BME280;26952;42.884;23.918;2023-02-23T10:50:45;95792.97;;;15.52;52.30
41222;BME280;26952;42.884;23.918;2023-02-23T10:53:29;95755.63;;;15.85;50.83
41222;BME280;26952;42.884;23.918;2023-02-23T10:56:12;95786.19;;;15.89;49.78
41222;BME280;26952;42.884;23.918;2023-02-23T10:58:45;95772.81;;;16.15;48.70
41222;BME280;26952;42.884;23.918;2023-02-23T11:01:35;95780.31;;;16.57;49.64
41222;BME280;26952;42.884;23.918;2023-02-23T11:06:43;95770.75;;;17.25;47.59
41222;BME280;26952;42.884;23.918;2023-02-23T11:09:31;95775.13;;;17.13;47.04
41222;BME280;26952;42.884;23.918;2023-02-23T11:12:20;95776.16;;;17.18;46.64
41222;BME280;26952;42.884;23.918;2023-02-23T11:14:48;95775.59;;;17.41;46.34
41222;BME280;26952;42.884;23.918;2023-02-23T11:17:30;95768.00;;;17.31;46.95
41222;BME280;26952;42.884;23.918;2023-02-23T11:19:58;95773.09;;;16.71;47.04
41222;BME280;26952;42.884;23.918;2023-02-23T11:22:30;95771.84;;;16.67;47.26
41222;BME280;26952;42.884;23.918;2023-02-23T11:24:56;95761.63;;;16.44;47.81
41222;BME280;26952;42.884;23.918;2023-02-23T11:27:24;95759.72;;;15.68;48.87
41222;BME280;26952;42.884;23.918;2023-02-23T11:29:51;95774.53;;;15.64;51.02
41222;BME280;26952;42.884;23.918;2023-02-23T11:32:21;95751.72;;;15.81;50.16
41222;BME280;26952;42.884;23.918;2023-02-23T11:35:26;95756.78;;;16.21;49.70
41222;BME280;26952;42.884;23.918;2023-02-23T11:37:53;95761.84;;;16.49;48.63
41222;BME280;26952;42.884;23.918;2023-02-23T11:40:26;95772.13;;;16.52;48.21
41222;BME280;26952;42.884;23.918;2023-02-23T11:42:59;95767.81;;;16.51;48.28
41222;BME280;26952;42.884;23.918;2023-02-23T11:45:47;95752.81;;;16.94;46.88
41222;BME280;26952;42.884;23.918;2023-02-23T11:50:59;95748.78;;;17.16;45.90
41222;BME280;26952;42.884;23.918;2023-02-23T11:53:33;95753.31;;;16.78;46.86
41222;BME280;26952;42.884;23.918;2023-02-23T11:56:01;95762.41;;;16.64;47.22
41222;BME280;26952;42.884;23.918;2023-02-23T11:59:14;95766.31;;;15.52;50.06
41222;BME280;26952;42.884;23.918;2023-02-23T12:02:17;95761.72;;;15.20;51.15
41222;BME280;26952;42.884;23.918;2023-02-23T12:04:45;95769.59;;;15.61;50.33
41222;BME280;26952;42.884;23.918;2023-02-23T12:07:34;95765.47;;;15.58;49.62
41222;BME280;26952;42.884;23.918;2023-02-23T12:12:51;95769.16;;;15.90;50.13
41222;BME280;26952;42.884;23.918;2023-02-23T12:15:33;95760.72;;;15.34;50.87
41222;BME280;26952;42.884;23.918;2023-02-23T12:18:06;95767.00;;;14.94;50.90
41222;BME280;26952;42.884;23.918;2023-02-23T12:20:38;95759.63;;;14.96;51.21
41222;BME280;26952;42.884;23.918;2023-02-23T12:23:09;95764.81;;;14.50;52.11
41222;BME280;26952;42.884;23.918;2023-02-23T12:25:42;95770.25;;;14.76;51.74
41222;BME280;26952;42.884;23.918;2023-02-23T12:28:27;95773.34;;;14.86;52.28
41222;BME280;26952;42.884;23.918;2023-02-23T12:31:00;95774.31;;;14.72;52.50
41222;BME280;26952;42.884;23.918;2023-02-23T12:33:41;95771.41;;;14.61;53.53
41222;BME280;26952;42.884;23.918;2023-02-23T12:38:55;95773.91;;;14.28;53.58
41222;BME280;26952;42.884;23.918;2023-02-23T12:41:34;95797.09;;;14.34;54.39
41222;BME280;26952;42.884;23.918;2023-02-23T12:44:13;95789.13;;;14.34;54.40
41222;BME280;26952;42.884;23.918;2023-02-23T12:46:47;95790.03;;;13.92;55.58
41222;BME280;26952;42.884;23.918;2023-02-23T12:49:31;95776.41;;;14.02;55.18
41222;BME280;26952;42.884;23.918;2023-02-23T12:52:12;95789.69;;;13.96;56.45
41222;BME280;26952;42.884;23.918;2023-02-23T12:54:41;95784.13;;;13.90;56.28
41222;BME280;26952;42.884;23.918;2023-02-23T13:00:20;95799.44;;;14.16;56.30
41222;BME280;26952;42.884;23.918;2023-02-23T13:15:16;95811.06;;;12.97;61.64
41222;BME280;26952;42.884;23.918;2023-02-23T13:17:55;95815.06;;;12.72;62.98
41222;BME280;26952;42.884;23.918;2023-02-23T13:26:20;95812.41;;;12.72;63.62
41222;BME280;26952;42.884;23.918;2023-02-23T13:28:33;95820.03;;;12.60;63.21
41222;BME280;26952;42.884;23.918;2023-02-23T13:31:01;95806.78;;;12.45;64.10
41222;BME280;26952;42.884;23.918;2023-02-23T13:33:28;95816.47;;;12.68;63.29
41222;BME280;26952;42.884;23.918;2023-02-23T13:36:00;95812.09;;;12.16;63.89
41222;BME280;26952;42.884;23.918;2023-02-23T13:41:06;95825.81;;;12.34;65.42
41222;BME280;26952;42.884;23.918;2023-02-23T13:43:51;95812.66;;;12.26;64.72
41222;BME280;26952;42.884;23.918;2023-02-23T13:46:55;95798.66;;;12.03;65.16
41222;BME280;26952;42.884;23.918;2023-02-23T13:52:39;95836.53;;;12.26;64.69
41222;BME280;26952;42.884;23.918;2023-02-23T13:57:54;95829.84;;;12.01;65.53
41222;BME280;26952;42.884;23.918;2023-02-23T14:00:22;95835.25;;;12.08;65.95
41222;BME280;26952;42.884;23.918;2023-02-23T14:02:49;95837.09;;;12.07;65.77
41222;BME280;26952;42.884;23.918;2023-02-23T14:05:24;95848.69;;;12.06;66.00
41222;BME280;26952;42.884;23.918;2023-02-23T14:07:52;95852.53;;;11.89;67.19
41222;BME280;26952;42.884;23.918;2023-02-23T14:10:21;95843.34;;;11.77;67.95
41222;BME280;26952;42.884;23.918;2023-02-23T14:13:23;95847.94;;;11.83;68.35
41222;BME280;26952;42.884;23.918;2023-02-23T14:16:26;95855.91;;;11.83;68.31
41222;BME280;26952;42.884;23.918;2023-02-23T14:24:16;95846.81;;;11.55;69.19
41222;BME280;26952;42.884;23.918;2023-02-23T14:29:41;95847.63;;;11.41;70.20
41222;BME280;26952;42.884;23.918;2023-02-23T14:37:38;95866.66;;;11.59;69.77
41222;BME280;26952;42.884;23.918;2023-02-23T14:40:06;95855.72;;;11.62;68.35
41222;BME280;26952;42.884;23.918;2023-02-23T14:42:37;95852.38;;;11.68;68.51
41222;BME280;26952;42.884;23.918;2023-02-23T14:45:15;95861.31;;;11.67;68.65
41222;BME280;26952;42.884;23.918;2023-02-23T14:47:46;95856.78;;;11.53;68.97
41222;BME280;26952;42.884;23.918;2023-02-23T14:50:21;95850.03;;;11.51;69.44
41222;BME280;26952;42.884;23.918;2023-02-23T14:52:49;95863.47;;;11.49;69.43
41222;BME280;26952;42.884;23.918;2023-02-23T14:55:20;95859.03;;;11.42;69.51
41222;BME280;26952;42.884;23.918;2023-02-23T14:57:46;95858.38;;;11.17;71.53
41222;BME280;26952;42.884;23.918;2023-02-23T15:00:24;95858.03;;;11.20;71.08
41222;BME280;26952;42.884;23.918;2023-02-23T15:05:55;95860.34;;;11.23;71.45
41222;BME280;26952;42.884;23.918;2023-02-23T15:08:23;95853.38;;;11.22;71.36